Oaks Corners, New York
Current Conditions -  °F | °C
As of 1:53 PM on Thursday 27 Nov 2014 (Local Time) from KPEO Reporting Station
Broken Clouds Broken Clouds  
Wind Chill: 24°   Ceiling: 5500
Heat Index: 32°   Visibility: 10mi
Dew Point: 21°   Wind: 9mph
Humidity: 64%   Direction: 320°NW
Pressure: 30.01"   Gusts: NA
Location:  42.93°N, 77.01°W
Report Text: KPEO 271853Z AUTO 32008KT 10SM BKN055 00/M06 A3001 RMK AO2 SLP174 T00001061
Loading
Personal Weather Stations






























Interactive Weather Map New forecast layout! Learn more

10-Day Weather Forecast

Advertisements
Track Severe Weather on mobile